sensor_id;sensor_type;location;lat;lon;timestamp;pressure;altitude;pressure_sealevel;temperature;humidity
62544;BME280;48597;49.030;1.822;2023-04-21T00:00:18;100454.25;;;19.66;41.05
62544;BME280;48597;49.030;1.822;2023-04-21T00:02:44;100452.66;;;19.65;41.13
62544;BME280;48597;49.030;1.822;2023-04-21T00:05:10;100454.72;;;19.64;40.99
62544;BME280;48597;49.030;1.822;2023-04-21T00:07:38;100446.59;;;19.62;40.85
62544;BME280;48597;49.030;1.822;2023-04-21T00:10:13;100448.19;;;19.63;40.72
62544;BME280;48597;49.030;1.822;2023-04-21T00:12:38;100440.53;;;19.60;40.74
62544;BME280;48597;49.030;1.822;2023-04-21T00:15:04;100435.59;;;19.61;40.87
62544;BME280;48597;49.030;1.822;2023-04-21T00:17:30;100434.03;;;19.60;40.87
62544;BME280;48597;49.030;1.822;2023-04-21T00:19:55;100434.50;;;19.58;40.94
62544;BME280;48597;49.030;1.822;2023-04-21T00:22:21;100430.03;;;19.57;40.86
62544;BME280;48597;49.030;1.822;2023-04-21T00:24:46;100424.75;;;19.56;40.76
62544;BME280;48597;49.030;1.822;2023-04-21T00:27:12;100429.69;;;19.55;40.88
62544;BME280;48597;49.030;1.822;2023-04-21T00:29:40;100424.75;;;19.56;40.90
62544;BME280;48597;49.030;1.822;2023-04-21T00:32:06;100415.84;;;19.54;40.89
62544;BME280;48597;49.030;1.822;2023-04-21T00:34:35;100415.84;;;19.54;40.88
62544;BME280;48597;49.030;1.822;2023-04-21T00:37:00;100403.25;;;19.51;40.90
62544;BME280;48597;49.030;1.822;2023-04-21T00:39:26;100397.53;;;19.51;40.84
62544;BME280;48597;49.030;1.822;2023-04-21T00:41:52;100408.19;;;19.51;41.01
62544;BME280;48597;49.030;1.822;2023-04-21T00:44:17;100405.78;;;19.49;40.99
62544;BME280;48597;49.030;1.822;2023-04-21T00:46:42;100408.63;;;19.49;40.84
62544;BME280;48597;49.030;1.822;2023-04-21T00:49:08;100406.19;;;19.48;40.96
62544;BME280;48597;49.030;1.822;2023-04-21T00:51:35;100408.28;;;19.47;41.10
62544;BME280;48597;49.030;1.822;2023-04-21T00:54:05;100400.97;;;19.46;40.92
62544;BME280;48597;49.030;1.822;2023-04-21T00:56:32;100398.13;;;19.46;41.02
62544;BME280;48597;49.030;1.822;2023-04-21T00:58:58;100396.50;;;19.45;40.94
62544;BME280;48597;49.030;1.822;2023-04-21T01:01:25;100390.00;;;19.45;40.87
62544;BME280;48597;49.030;1.822;2023-04-21T01:03:55;100393.31;;;19.43;40.91
62544;BME280;48597;49.030;1.822;2023-04-21T01:06:21;100391.72;;;19.42;41.11
62544;BME280;48597;49.030;1.822;2023-04-21T01:08:47;100392.97;;;19.41;41.01
62544;BME280;48597;49.030;1.822;2023-04-21T01:11:13;100396.63;;;19.42;41.01
62544;BME280;48597;49.030;1.822;2023-04-21T01:13:39;100385.66;;;19.40;40.98
62544;BME280;48597;49.030;1.822;2023-04-21T01:16:05;100382.00;;;19.40;41.02
62544;BME280;48597;49.030;1.822;2023-04-21T01:18:31;100383.25;;;19.39;41.00
62544;BME280;48597;49.030;1.822;2023-04-21T01:20:56;100378.78;;;19.38;41.06
62544;BME280;48597;49.030;1.822;2023-04-21T01:23:23;100373.88;;;19.38;40.93
62544;BME280;48597;49.030;1.822;2023-04-21T01:25:49;100372.28;;;19.37;40.91
62544;BME280;48597;49.030;1.822;2023-04-21T01:28:21;100357.97;;;19.37;40.67
62544;BME280;48597;49.030;1.822;2023-04-21T01:30:46;100365.75;;;19.37;40.60
62544;BME280;48597;49.030;1.822;2023-04-21T01:33:12;100356.38;;;19.36;40.66
62544;BME280;48597;49.030;1.822;2023-04-21T01:35:37;100362.09;;;19.36;40.74
62544;BME280;48597;49.030;1.822;2023-04-21T01:38:03;100363.34;;;19.35;40.65
62544;BME280;48597;49.030;1.822;2023-04-21T01:40:29;100368.25;;;19.35;40.72
62544;BME280;48597;49.030;1.822;2023-04-21T01:42:54;100362.53;;;19.35;40.74
62544;BME280;48597;49.030;1.822;2023-04-21T01:45:20;100359.69;;;19.35;40.62
62544;BME280;48597;49.030;1.822;2023-04-21T01:47:45;100355.56;;;19.36;40.74
62544;BME280;48597;49.030;1.822;2023-04-21T01:50:11;100365.41;;;19.35;40.75
62544;BME280;48597;49.030;1.822;2023-04-21T01:52:36;100359.69;;;19.35;40.68
62544;BME280;48597;49.030;1.822;2023-04-21T01:55:02;100359.22;;;19.36;40.49
62544;BME280;48597;49.030;1.822;2023-04-21T01:57:27;100363.34;;;19.35;40.31
62544;BME280;48597;49.030;1.822;2023-04-21T01:59:53;100367.00;;;19.36;40.64
62544;BME280;48597;49.030;1.822;2023-04-21T02:02:18;100353.53;;;19.36;40.59
62544;BME280;48597;49.030;1.822;2023-04-21T02:04:43;100347.81;;;19.36;40.56
62544;BME280;48597;49.030;1.822;2023-04-21T02:07:09;100340.84;;;19.37;40.35
62544;BME280;48597;49.030;1.822;2023-04-21T02:09:34;100337.97;;;19.37;40.55
62544;BME280;48597;49.030;1.822;2023-04-21T02:12:02;100344.50;;;19.38;40.29
62544;BME280;48597;49.030;1.822;2023-04-21T02:14:29;100337.97;;;19.37;40.50
62544;BME280;48597;49.030;1.822;2023-04-21T02:16:55;100346.88;;;19.39;40.54
62544;BME280;48597;49.030;1.822;2023-04-21T02:19:20;100346.09;;;19.39;40.45
62544;BME280;48597;49.030;1.822;2023-04-21T02:21:46;100339.91;;;19.40;40.57
62544;BME280;48597;49.030;1.822;2023-04-21T02:24:11;100330.09;;;19.41;40.57
62544;BME280;48597;49.030;1.822;2023-04-21T02:26:36;100335.81;;;19.41;40.52
62544;BME280;48597;49.030;1.822;2023-04-21T02:29:02;100332.94;;;19.41;40.61
62544;BME280;48597;49.030;1.822;2023-04-21T02:31:28;100329.63;;;19.43;40.48
62544;BME280;48597;49.030;1.822;2023-04-21T02:33:53;100324.72;;;19.43;40.48
62544;BME280;48597;49.030;1.822;2023-04-21T02:36:20;100323.91;;;19.43;40.56
62544;BME280;48597;49.030;1.822;2023-04-21T02:38:45;100326.78;;;19.43;40.65
62544;BME280;48597;49.030;1.822;2023-04-21T02:41:10;100321.84;;;19.43;40.60
62544;BME280;48597;49.030;1.822;2023-04-21T02:43:36;100313.28;;;19.43;40.52
62544;BME280;48597;49.030;1.822;2023-04-21T02:46:08;100318.53;;;19.45;40.53
62544;BME280;48597;49.030;1.822;2023-04-21T02:48:34;100316.47;;;19.45;40.75
62544;BME280;48597;49.030;1.822;2023-04-21T02:51:00;100309.97;;;19.45;40.51
62544;BME280;48597;49.030;1.822;2023-04-21T02:53:25;100314.44;;;19.46;40.59
62544;BME280;48597;49.030;1.822;2023-04-21T02:55:51;100310.75;;;19.45;40.67
62544;BME280;48597;49.030;1.822;2023-04-21T02:58:16;100312.38;;;19.46;40.44
62544;BME280;48597;49.030;1.822;2023-04-21T03:00:42;100311.09;;;19.47;40.49
62544;BME280;48597;49.030;1.822;2023-04-21T03:03:07;100296.81;;;19.47;40.51
62544;BME280;48597;49.030;1.822;2023-04-21T03:05:33;100292.66;;;19.48;40.35
62544;BME280;48597;49.030;1.822;2023-04-21T03:07:59;100292.66;;;19.48;40.52
62544;BME280;48597;49.030;1.822;2023-04-21T03:10:24;100293.50;;;19.49;40.24
62544;BME280;48597;49.030;1.822;2023-04-21T03:12:50;100294.28;;;19.49;40.49
62544;BME280;48597;49.030;1.822;2023-04-21T03:15:15;100291.78;;;19.51;40.37
62544;BME280;48597;49.030;1.822;2023-04-21T03:17:41;100297.50;;;19.51;40.33
62544;BME280;48597;49.030;1.822;2023-04-21T03:20:07;100299.91;;;19.53;40.44
62544;BME280;48597;49.030;1.822;2023-04-21T03:22:37;100293.72;;;19.54;40.42
62544;BME280;48597;49.030;1.822;2023-04-21T03:25:03;100299.78;;;19.56;40.43
62544;BME280;48597;49.030;1.822;2023-04-21T03:27:33;100294.06;;;19.56;40.45
62544;BME280;48597;49.030;1.822;2023-04-21T03:29:58;100298.53;;;19.57;40.39
62544;BME280;48597;49.030;1.822;2023-04-21T03:32:24;100289.50;;;19.59;40.43
62544;BME280;48597;49.030;1.822;2023-04-21T03:34:49;100293.16;;;19.59;40.28
62544;BME280;48597;49.030;1.822;2023-04-21T03:37:14;100292.66;;;19.61;40.41
62544;BME280;48597;49.030;1.822;2023-04-21T03:39:40;100289.34;;;19.62;40.38
62544;BME280;48597;49.030;1.822;2023-04-21T03:42:05;100284.41;;;19.63;40.33
62544;BME280;48597;49.030;1.822;2023-04-21T03:44:30;100289.69;;;19.65;40.41
62544;BME280;48597;49.030;1.822;2023-04-21T03:46:56;100284.75;;;19.65;40.44
62544;BME280;48597;49.030;1.822;2023-04-21T03:49:21;100289.22;;;19.66;40.46
62544;BME280;48597;49.030;1.822;2023-04-21T03:51:47;100288.75;;;19.68;40.34
62544;BME280;48597;49.030;1.822;2023-04-21T03:54:12;100285.91;;;19.68;40.14
62544;BME280;48597;49.030;1.822;2023-04-21T03:56:37;100283.03;;;19.68;40.22
62544;BME280;48597;49.030;1.822;2023-04-21T03:59:03;100276.84;;;19.69;40.33
62544;BME280;48597;49.030;1.822;2023-04-21T04:01:29;100276.84;;;19.69;40.17
62544;BME280;48597;49.030;1.822;2023-04-21T04:03:54;100269.09;;;19.70;40.27
62544;BME280;48597;49.030;1.822;2023-04-21T04:06:20;100269.09;;;19.70;40.18
62544;BME280;48597;49.030;1.822;2023-04-21T04:08:45;100272.28;;;19.72;40.10
62544;BME280;48597;49.030;1.822;2023-04-21T04:11:10;100265.75;;;19.71;40.04
62544;BME280;48597;49.030;1.822;2023-04-21T04:13:36;100269.41;;;19.72;40.28
62544;BME280;48597;49.030;1.822;2023-04-21T04:16:01;100265.31;;;19.73;40.15
62544;BME280;48597;49.030;1.822;2023-04-21T04:18:27;100271.03;;;19.73;40.24
62544;BME280;48597;49.030;1.822;2023-04-21T04:20:52;100268.97;;;19.73;40.10
62544;BME280;48597;49.030;1.822;2023-04-21T04:23:17;100266.88;;;19.74;40.18
62544;BME280;48597;49.030;1.822;2023-04-21T04:25:43;100267.66;;;19.74;40.24
62544;BME280;48597;49.030;1.822;2023-04-21T04:28:08;100259.09;;;19.74;40.02
62544;BME280;48597;49.030;1.822;2023-04-21T04:30:34;100251.31;;;19.75;40.29
62544;BME280;48597;49.030;1.822;2023-04-21T04:33:00;100238.28;;;19.74;40.29
62544;BME280;48597;49.030;1.822;2023-04-21T04:35:25;100242.72;;;19.75;40.46
62544;BME280;48597;49.030;1.822;2023-04-21T04:37:51;100223.50;;;19.75;40.31
62544;BME280;48597;49.030;1.822;2023-04-21T04:40:17;100225.56;;;19.75;40.51
62544;BME280;48597;49.030;1.822;2023-04-21T04:42:43;100231.28;;;19.75;40.33
62544;BME280;48597;49.030;1.822;2023-04-21T04:45:11;100236.22;;;19.74;40.60
62544;BME280;48597;49.030;1.822;2023-04-21T04:47:38;100237.00;;;19.75;40.51
62544;BME280;48597;49.030;1.822;2023-04-21T04:50:04;100233.34;;;19.74;40.55
62544;BME280;48597;49.030;1.822;2023-04-21T04:52:30;100241.13;;;19.74;40.51
62544;BME280;48597;49.030;1.822;2023-04-21T04:54:55;100231.78;;;19.73;40.48
62544;BME280;48597;49.030;1.822;2023-04-21T04:57:21;100229.69;;;19.74;40.56
62544;BME280;48597;49.030;1.822;2023-04-21T04:59:46;100231.78;;;19.73;40.53
62544;BME280;48597;49.030;1.822;2023-04-21T05:02:11;100235.41;;;19.74;40.32
62544;BME280;48597;49.030;1.822;2023-04-21T05:04:37;100233.03;;;19.72;40.44
62544;BME280;48597;49.030;1.822;2023-04-21T05:07:03;100233.03;;;19.72;40.51
62544;BME280;48597;49.030;1.822;2023-04-21T05:09:30;100240.03;;;19.71;40.35
62544;BME280;48597;49.030;1.822;2023-04-21T05:11:56;100239.22;;;19.71;40.38
62544;BME280;48597;49.030;1.822;2023-04-21T05:14:21;100246.22;;;19.70;40.36
62544;BME280;48597;49.030;1.822;2023-04-21T05:16:46;100247.00;;;19.70;40.37
62544;BME280;48597;49.030;1.822;2023-04-21T05:19:12;100251.94;;;19.70;40.34
62544;BME280;48597;49.030;1.822;2023-04-21T05:21:37;100249.06;;;19.70;40.32
62544;BME280;48597;49.030;1.822;2023-04-21T05:24:02;100251.13;;;19.69;40.16
62544;BME280;48597;49.030;1.822;2023-04-21T05:26:28;100249.06;;;19.70;40.28
62544;BME280;48597;49.030;1.822;2023-04-21T05:28:54;100245.41;;;19.69;40.33
62544;BME280;48597;49.030;1.822;2023-04-21T05:31:21;100248.25;;;19.69;40.18
62544;BME280;48597;49.030;1.822;2023-04-21T05:33:46;100246.22;;;19.70;40.09
62544;BME280;48597;49.030;1.822;2023-04-21T05:36:12;100251.94;;;19.70;40.08
62544;BME280;48597;49.030;1.822;2023-04-21T05:38:37;100249.06;;;19.70;40.05
62544;BME280;48597;49.030;1.822;2023-04-21T05:41:03;100259.25;;;19.71;40.09
62544;BME280;48597;49.030;1.822;2023-04-21T05:43:29;100252.72;;;19.70;39.99
62544;BME280;48597;49.030;1.822;2023-04-21T05:45:58;100257.19;;;19.71;40.06
62544;BME280;48597;49.030;1.822;2023-04-21T05:48:23;100249.41;;;19.72;39.86
62544;BME280;48597;49.030;1.822;2023-04-21T05:50:49;100240.81;;;19.72;39.84
62544;BME280;48597;49.030;1.822;2023-04-21T05:53:14;100251.00;;;19.73;39.81
62544;BME280;48597;49.030;1.822;2023-04-21T05:55:39;100244.47;;;19.72;39.80
62544;BME280;48597;49.030;1.822;2023-04-21T05:58:05;100241.63;;;19.72;39.80
62544;BME280;48597;49.030;1.822;2023-04-21T06:00:30;100244.47;;;19.72;39.84
62544;BME280;48597;49.030;1.822;2023-04-21T06:02:56;100253.38;;;19.74;39.81
62544;BME280;48597;49.030;1.822;2023-04-21T06:05:21;100243.22;;;19.73;39.81
62544;BME280;48597;49.030;1.822;2023-04-21T06:07:47;100244.34;;;19.76;39.75
62544;BME280;48597;49.030;1.822;2023-04-21T06:10:13;100238.59;;;19.76;39.71
62544;BME280;48597;49.030;1.822;2023-04-21T06:12:38;100237.34;;;19.77;39.97
62544;BME280;48597;49.030;1.822;2023-04-21T06:15:04;100233.22;;;19.78;39.86
62544;BME280;48597;49.030;1.822;2023-04-21T06:17:30;100234.81;;;19.79;39.79
62544;BME280;48597;49.030;1.822;2023-04-21T06:19:55;100234.81;;;19.79;39.81
62544;BME280;48597;49.030;1.822;2023-04-21T06:22:21;100235.16;;;19.81;39.93
62544;BME280;48597;49.030;1.822;2023-04-21T06:24:47;100223.72;;;19.81;40.04
62544;BME280;48597;49.030;1.822;2023-04-21T06:27:13;100237.09;;;19.84;40.09
62544;BME280;48597;49.030;1.822;2023-04-21T06:29:39;100231.38;;;19.84;40.23
62544;BME280;48597;49.030;1.822;2023-04-21T06:32:06;100226.75;;;19.86;40.09
62544;BME280;48597;49.030;1.822;2023-04-21T06:34:33;100228.38;;;19.87;40.02
62544;BME280;48597;49.030;1.822;2023-04-21T06:36:59;100229.50;;;19.90;40.31
62544;BME280;48597;49.030;1.822;2023-04-21T06:39:25;100233.97;;;19.91;40.10
62544;BME280;48597;49.030;1.822;2023-04-21T06:41:50;100235.56;;;19.92;40.03
62544;BME280;48597;49.030;1.822;2023-04-21T06:44:16;100233.50;;;19.92;40.09
62544;BME280;48597;49.030;1.822;2023-04-21T06:46:41;100232.22;;;19.93;40.29
62544;BME280;48597;49.030;1.822;2023-04-21T06:49:07;100233.81;;;19.94;40.16
62544;BME280;48597;49.030;1.822;2023-04-21T06:51:33;100231.31;;;19.96;40.25
62544;BME280;48597;49.030;1.822;2023-04-21T06:53:59;100231.31;;;19.96;40.17
62544;BME280;48597;49.030;1.822;2023-04-21T06:56:29;100228.78;;;19.98;40.16
62544;BME280;48597;49.030;1.822;2023-04-21T06:58:54;100230.34;;;19.99;40.19
62544;BME280;48597;49.030;1.822;2023-04-21T07:01:20;100230.34;;;19.99;40.04
62544;BME280;48597;49.030;1.822;2023-04-21T07:03:46;100225.44;;;20.00;39.93
62544;BME280;48597;49.030;1.822;2023-04-21T07:06:12;100229.09;;;20.01;40.15
62544;BME280;48597;49.030;1.822;2023-04-21T07:08:37;100222.09;;;20.02;40.04
62544;BME280;48597;49.030;1.822;2023-04-21T07:11:06;100234.34;;;20.02;40.03
62544;BME280;48597;49.030;1.822;2023-04-21T07:13:31;100229.41;;;20.03;39.92
62544;BME280;48597;49.030;1.822;2023-04-21T07:15:57;100233.06;;;20.03;39.93
62544;BME280;48597;49.030;1.822;2023-04-21T07:18:22;100228.16;;;20.04;40.06
62544;BME280;48597;49.030;1.822;2023-04-21T07:20:48;100226.09;;;20.04;39.93
62544;BME280;48597;49.030;1.822;2023-04-21T07:23:13;100222.78;;;20.06;40.09
62544;BME280;48597;49.030;1.822;2023-04-21T07:25:39;100221.19;;;20.05;40.12
62544;BME280;48597;49.030;1.822;2023-04-21T07:28:04;100221.97;;;20.05;39.92
62544;BME280;48597;49.030;1.822;2023-04-21T07:30:30;100217.84;;;20.06;40.14
62544;BME280;48597;49.030;1.822;2023-04-21T07:32:56;100219.09;;;20.05;39.90
62544;BME280;48597;49.030;1.822;2023-04-21T07:35:21;100214.66;;;20.04;39.92
62544;BME280;48597;49.030;1.822;2023-04-21T07:37:47;100217.06;;;20.06;40.04
62544;BME280;48597;49.030;1.822;2023-04-21T07:40:13;100216.25;;;20.05;40.06
62544;BME280;48597;49.030;1.822;2023-04-21T07:42:38;100217.06;;;20.06;40.05
62544;BME280;48597;49.030;1.822;2023-04-21T07:45:04;100204.81;;;20.05;39.92
62544;BME280;48597;49.030;1.822;2023-04-21T07:47:30;100207.66;;;20.05;40.27
62544;BME280;48597;49.030;1.822;2023-04-21T07:49:56;100209.25;;;20.06;40.22
62544;BME280;48597;49.030;1.822;2023-04-21T07:52:23;100206.41;;;20.06;40.13
62544;BME280;48597;49.030;1.822;2023-04-21T07:54:48;100209.25;;;20.06;40.67
62544;BME280;48597;49.030;1.822;2023-04-21T07:57:14;100205.59;;;20.06;40.43
62544;BME280;48597;49.030;1.822;2023-04-21T07:59:40;100212.13;;;20.06;40.65
62544;BME280;48597;49.030;1.822;2023-04-21T08:02:05;100204.00;;;20.05;40.62
62544;BME280;48597;49.030;1.822;2023-04-21T08:04:31;100204.81;;;20.05;40.37
62544;BME280;48597;49.030;1.822;2023-04-21T08:06:59;100207.66;;;20.05;40.43
62544;BME280;48597;49.030;1.822;2023-04-21T08:09:25;100217.50;;;20.04;40.57
62544;BME280;48597;49.030;1.822;2023-04-21T08:11:51;100207.34;;;20.03;40.57
62544;BME280;48597;49.030;1.822;2023-04-21T08:14:17;100211.00;;;20.04;40.35
62544;BME280;48597;49.030;1.822;2023-04-21T08:16:42;100210.19;;;20.03;40.41
62544;BME280;48597;49.030;1.822;2023-04-21T08:19:08;100203.66;;;20.03;40.34
62544;BME280;48597;49.030;1.822;2023-04-21T08:21:34;100202.88;;;20.02;40.56
62544;BME280;48597;49.030;1.822;2023-04-21T08:24:00;100208.59;;;20.02;40.45
62544;BME280;48597;49.030;1.822;2023-04-21T08:26:26;100202.06;;;20.02;40.66
62544;BME280;48597;49.030;1.822;2023-04-21T08:28:52;100204.13;;;20.01;40.50
62544;BME280;48597;49.030;1.822;2023-04-21T08:31:18;100197.63;;;20.01;40.70
62544;BME280;48597;49.030;1.822;2023-04-21T08:33:44;100198.41;;;20.01;40.75
62544;BME280;48597;49.030;1.822;2023-04-21T08:36:10;100200.47;;;20.01;40.73
62544;BME280;48597;49.030;1.822;2023-04-21T08:38:36;100203.34;;;20.01;40.74
62544;BME280;48597;49.030;1.822;2023-04-21T08:41:02;100206.19;;;20.01;40.66
62544;BME280;48597;49.030;1.822;2023-04-21T08:43:28;100208.25;;;20.00;40.75
62544;BME280;48597;49.030;1.822;2023-04-21T08:45:54;100212.41;;;19.99;40.61
62544;BME280;48597;49.030;1.822;2023-04-21T08:48:23;100204.59;;;19.99;40.58
62544;BME280;48597;49.030;1.822;2023-04-21T08:50:50;100203.84;;;19.99;40.66
62544;BME280;48597;49.030;1.822;2023-04-21T08:53:16;100212.88;;;19.97;40.67
62544;BME280;48597;49.030;1.822;2023-04-21T08:55:42;100210.81;;;19.98;40.58
62544;BME280;48597;49.030;1.822;2023-04-21T08:58:08;100211.63;;;19.98;40.57
62544;BME280;48597;49.030;1.822;2023-04-21T09:00:37;100207.97;;;19.98;40.66
62544;BME280;48597;49.030;1.822;2023-04-21T09:03:03;100207.97;;;19.98;40.74
62544;BME280;48597;49.030;1.822;2023-04-21T09:05:32;100208.75;;;19.98;40.63
62544;BME280;48597;49.030;1.822;2023-04-21T09:08:12;100205.09;;;19.98;40.49
62544;BME280;48597;49.030;1.822;2023-04-21T09:10:48;100207.97;;;19.98;40.26
62544;BME280;48597;49.030;1.822;2023-04-21T09:13:14;100206.34;;;19.97;40.58
62544;BME280;48597;49.030;1.822;2023-04-21T09:15:42;100210.47;;;19.96;40.59
62544;BME280;48597;49.030;1.822;2023-04-21T09:20:39;100210.47;;;19.96;40.47
62544;BME280;48597;49.030;1.822;2023-04-21T09:23:05;100204.75;;;19.96;40.74
62544;BME280;48597;49.030;1.822;2023-04-21T09:25:32;100213.34;;;19.96;40.87
62544;BME280;48597;49.030;1.822;2023-04-21T09:27:59;100204.75;;;19.96;40.93
62544;BME280;48597;49.030;1.822;2023-04-21T09:30:25;100203.16;;;19.95;40.75
62544;BME280;48597;49.030;1.822;2023-04-21T09:32:55;100199.03;;;19.96;41.09
62544;BME280;48597;49.030;1.822;2023-04-21T09:35:22;100203.16;;;19.95;41.10
62544;BME280;48597;49.030;1.822;2023-04-21T09:37:47;100194.59;;;19.95;41.16
62544;BME280;48597;49.030;1.822;2023-04-21T09:40:13;100192.97;;;19.94;41.15
62544;BME280;48597;49.030;1.822;2023-04-21T09:42:41;100187.25;;;19.94;41.14
62544;BME280;48597;49.030;1.822;2023-04-21T09:45:07;100194.25;;;19.93;41.15
62544;BME280;48597;49.030;1.822;2023-04-21T09:47:39;100186.47;;;19.93;41.29
62544;BME280;48597;49.030;1.822;2023-04-21T09:50:07;100187.72;;;19.92;41.54
62544;BME280;48597;49.030;1.822;2023-04-21T09:52:35;100185.66;;;19.93;41.81
62544;BME280;48597;49.030;1.822;2023-04-21T09:55:03;100188.53;;;19.93;41.85
62544;BME280;48597;49.030;1.822;2023-04-21T09:57:34;100182.00;;;19.92;41.89
62544;BME280;48597;49.030;1.822;2023-04-21T10:00:05;100189.78;;;19.92;41.92
62544;BME280;48597;49.030;1.822;2023-04-21T10:02:37;100179.16;;;19.92;41.87
62544;BME280;48597;49.030;1.822;2023-04-21T10:05:06;100187.72;;;19.92;41.87
62544;BME280;48597;49.030;1.822;2023-04-21T10:07:31;100173.88;;;19.91;42.16
62544;BME280;48597;49.030;1.822;2023-04-21T10:09:58;100183.28;;;19.91;42.15
62544;BME280;48597;49.030;1.822;2023-04-21T10:12:24;100181.66;;;19.90;42.21
62544;BME280;48597;49.030;1.822;2023-04-21T10:14:52;100170.22;;;19.90;42.31
62544;BME280;48597;49.030;1.822;2023-04-21T10:17:24;100172.28;;;19.90;42.32
62544;BME280;48597;49.030;1.822;2023-04-21T10:22:27;100178.00;;;19.90;41.79
62544;BME280;48597;49.030;1.822;2023-04-21T10:24:55;100174.34;;;19.89;42.06
62544;BME280;48597;49.030;1.822;2023-04-21T10:27:39;100173.56;;;19.89;41.66
62544;BME280;48597;49.030;1.822;2023-04-21T10:30:21;100172.75;;;19.88;41.84
62544;BME280;48597;49.030;1.822;2023-04-21T10:32:47;100165.44;;;19.87;41.98
62544;BME280;48597;49.030;1.822;2023-04-21T10:35:23;100169.09;;;19.88;41.84
62544;BME280;48597;49.030;1.822;2023-04-21T10:37:49;100164.66;;;19.87;41.90
62544;BME280;48597;49.030;1.822;2023-04-21T10:42:55;100162.59;;;19.87;41.93
62544;BME280;48597;49.030;1.822;2023-04-21T10:45:24;100159.41;;;19.85;41.95
62544;BME280;48597;49.030;1.822;2023-04-21T10:47:51;100160.97;;;19.86;41.90
62544;BME280;48597;49.030;1.822;2023-04-21T10:55:20;100162.75;;;19.84;41.90
62544;BME280;48597;49.030;1.822;2023-04-21T10:57:46;100150.50;;;19.83;41.89
62544;BME280;48597;49.030;1.822;2023-04-21T11:00:17;100151.31;;;19.84;41.85
62544;BME280;48597;49.030;1.822;2023-04-21T11:02:43;100149.72;;;19.83;41.96
62544;BME280;48597;49.030;1.822;2023-04-21T11:05:09;100146.84;;;19.83;41.81
62544;BME280;48597;49.030;1.822;2023-04-21T11:07:35;100143.19;;;19.82;41.94
62544;BME280;48597;49.030;1.822;2023-04-21T11:10:03;100141.13;;;19.83;42.02
62544;BME280;48597;49.030;1.822;2023-04-21T11:12:31;100138.72;;;19.81;42.20
62544;BME280;48597;49.030;1.822;2023-04-21T11:14:57;100137.94;;;19.81;42.06
62544;BME280;48597;49.030;1.822;2023-04-21T11:17:23;100139.19;;;19.80;42.10
62544;BME280;48597;49.030;1.822;2023-04-21T11:19:53;100143.66;;;19.81;42.20
62544;BME280;48597;49.030;1.822;2023-04-21T11:22:21;100143.66;;;19.81;42.46
62544;BME280;48597;49.030;1.822;2023-04-21T11:24:48;100144.44;;;19.81;42.07
62544;BME280;48597;49.030;1.822;2023-04-21T11:27:15;100144.44;;;19.81;42.45
62544;BME280;48597;49.030;1.822;2023-04-21T11:29:44;100142.06;;;19.80;42.44
62544;BME280;48597;49.030;1.822;2023-04-21T11:32:13;100137.72;;;19.75;42.32
62544;BME280;48597;49.030;1.822;2023-04-21T11:34:39;100150.75;;;19.76;42.33
62544;BME280;48597;49.030;1.822;2023-04-21T11:37:13;100147.44;;;19.78;42.15
62544;BME280;48597;49.030;1.822;2023-04-21T11:39:39;100140.91;;;19.77;42.39
62544;BME280;48597;49.030;1.822;2023-04-21T11:42:05;100144.59;;;19.78;42.26
62544;BME280;48597;49.030;1.822;2023-04-21T11:47:00;100143.00;;;19.77;42.46
62544;BME280;48597;49.030;1.822;2023-04-21T11:49:45;100143.00;;;19.77;42.23
62544;BME280;48597;49.030;1.822;2023-04-21T11:54:46;100138.53;;;19.76;42.42
62544;BME280;48597;49.030;1.822;2023-04-21T11:57:12;100136.94;;;19.75;42.33
62544;BME280;48597;49.030;1.822;2023-04-21T11:59:37;100141.38;;;19.76;42.41
62544;BME280;48597;49.030;1.822;2023-04-21T12:02:03;100137.72;;;19.75;42.30
62544;BME280;48597;49.030;1.822;2023-04-21T12:04:28;100136.13;;;19.74;42.26
62544;BME280;48597;49.030;1.822;2023-04-21T12:07:00;100141.38;;;19.76;42.40
62544;BME280;48597;49.030;1.822;2023-04-21T12:09:27;100139.78;;;19.75;42.38
62544;BME280;48597;49.030;1.822;2023-04-21T12:11:55;100137.72;;;19.75;42.38
62544;BME280;48597;49.030;1.822;2023-04-21T12:14:30;100138.19;;;19.74;42.50
62544;BME280;48597;49.030;1.822;2023-04-21T12:16:58;100136.13;;;19.74;42.27
62544;BME280;48597;49.030;1.822;2023-04-21T12:19:44;100146.78;;;19.74;42.10
62544;BME280;48597;49.030;1.822;2023-04-21T12:22:12;100142.34;;;19.73;42.53
62544;BME280;48597;49.030;1.822;2023-04-21T12:24:38;100140.28;;;19.73;42.39
62544;BME280;48597;49.030;1.822;2023-04-21T12:27:04;100143.16;;;19.73;42.40
62544;BME280;48597;49.030;1.822;2023-04-21T12:29:30;100135.84;;;19.72;42.35
62544;BME280;48597;49.030;1.822;2023-04-21T12:31:56;100136.63;;;19.73;42.30
62544;BME280;48597;49.030;1.822;2023-04-21T12:34:21;100132.16;;;19.72;42.31
62544;BME280;48597;49.030;1.822;2023-04-21T12:36:46;100134.22;;;19.71;42.61
62544;BME280;48597;49.030;1.822;2023-04-21T12:39:12;100136.28;;;19.71;42.46
62544;BME280;48597;49.030;1.822;2023-04-21T12:41:41;100132.16;;;19.72;42.36
62544;BME280;48597;49.030;1.822;2023-04-21T12:44:06;100127.72;;;19.71;42.25
62544;BME280;48597;49.030;1.822;2023-04-21T12:46:31;100126.91;;;19.70;42.34
62544;BME280;48597;49.030;1.822;2023-04-21T12:48:57;100126.91;;;19.70;42.37
62544;BME280;48597;49.030;1.822;2023-04-21T12:51:22;100133.44;;;19.71;42.36
62544;BME280;48597;49.030;1.822;2023-04-21T12:53:48;100132.63;;;19.70;42.37
62544;BME280;48597;49.030;1.822;2023-04-21T12:56:13;100138.34;;;19.70;42.61
62544;BME280;48597;49.030;1.822;2023-04-21T12:58:39;100134.69;;;19.70;42.41
62544;BME280;48597;49.030;1.822;2023-04-21T13:01:04;100135.50;;;19.70;42.46
62544;BME280;48597;49.030;1.822;2023-04-21T13:03:30;100132.63;;;19.70;42.37